sensor_id;sensor_type;location;lat;lon;timestamp;pressure;altitude;pressure_sealevel;temperature;humidity
7182;BME280;3632;42.724;23.298;2023-06-10T00:02:12;94989.53;;;19.97;97.96
7182;BME280;3632;42.724;23.298;2023-06-10T00:04:39;95016.00;;;19.99;98.31
7182;BME280;3632;42.724;23.298;2023-06-10T00:07:07;95024.53;;;19.78;98.60
7182;BME280;3632;42.724;23.298;2023-06-10T00:09:36;94520.63;;;16.71;99.95
7182;BME280;3632;42.724;23.298;2023-06-10T00:12:03;94971.00;;;19.57;100.00
7182;BME280;3632;42.724;23.298;2023-06-10T00:14:30;94714.34;;;17.77;100.00
7182;BME280;3632;42.724;23.298;2023-06-10T00:16:57;94973.22;;;19.60;100.00
7182;BME280;3632;42.724;23.298;2023-06-10T00:19:24;94966.84;;;19.27;100.00
7182;BME280;3632;42.724;23.298;2023-06-10T00:21:55;94981.91;;;19.38;100.00
7182;BME280;3632;42.724;23.298;2023-06-10T00:24:22;94973.09;;;19.47;100.00
7182;BME280;3632;42.724;23.298;2023-06-10T00:26:51;94916.06;;;19.20;99.57
7182;BME280;3632;42.724;23.298;2023-06-10T00:29:17;95056.41;;;19.20;100.00
7182;BME280;3632;42.724;23.298;2023-06-10T00:31:45;94937.75;;;19.04;100.00
7182;BME280;3632;42.724;23.298;2023-06-10T00:34:12;94967.84;;;18.97;100.00
7182;BME280;3632;42.724;23.298;2023-06-10T00:36:39;94983.25;;;19.20;100.00
7182;BME280;3632;42.724;23.298;2023-06-10T00:39:06;94975.06;;;19.31;100.00
7182;BME280;3632;42.724;23.298;2023-06-10T00:41:33;94983.94;;;19.28;100.00
7182;BME280;3632;42.724;23.298;2023-06-10T00:44:02;94981.09;;;19.38;100.00
7182;BME280;3632;42.724;23.298;2023-06-10T00:46:29;94980.75;;;19.55;100.00
7182;BME280;3632;42.724;23.298;2023-06-10T00:48:57;94925.75;;;19.32;100.00
7182;BME280;3632;42.724;23.298;2023-06-10T00:51:25;94930.00;;;18.75;100.00
7182;BME280;3632;42.724;23.298;2023-06-10T00:53:53;94545.03;;;16.90;99.96
7182;BME280;3632;42.724;23.298;2023-06-10T00:56:20;95064.75;;;19.81;99.55
7182;BME280;3632;42.724;23.298;2023-06-10T00:58:47;95006.69;;;19.83;99.54
7182;BME280;3632;42.724;23.298;2023-06-10T01:01:17;94740.81;;;17.71;98.77
7182;BME280;3632;42.724;23.298;2023-06-10T01:03:45;94748.56;;;18.01;98.89
7182;BME280;3632;42.724;23.298;2023-06-10T01:06:19;95016.19;;;19.61;99.43
7182;BME280;3632;42.724;23.298;2023-06-10T01:08:55;94986.44;;;19.87;100.00
7182;BME280;3632;42.724;23.298;2023-06-10T01:11:29;94991.25;;;19.90;100.00
7182;BME280;3632;42.724;23.298;2023-06-10T01:14:00;94887.09;;;19.24;100.00
7182;BME280;3632;42.724;23.298;2023-06-10T01:16:30;95000.28;;;20.00;100.00
7182;BME280;3632;42.724;23.298;2023-06-10T01:18:58;94999.38;;;20.08;100.00
7182;BME280;3632;42.724;23.298;2023-06-10T01:21:27;94929.47;;;19.59;100.00
7182;BME280;3632;42.724;23.298;2023-06-10T01:23:54;95002.63;;;19.95;100.00
7182;BME280;3632;42.724;23.298;2023-06-10T01:26:28;94987.22;;;19.87;100.00
7182;BME280;3632;42.724;23.298;2023-06-10T01:28:59;94991.81;;;19.85;100.00
7182;BME280;3632;42.724;23.298;2023-06-10T01:31:33;94995.25;;;19.92;100.00
7182;BME280;3632;42.724;23.298;2023-06-10T01:34:08;94990.31;;;19.97;100.00
7182;BME280;3632;42.724;23.298;2023-06-10T01:36:37;94810.44;;;18.30;100.00
7182;BME280;3632;42.724;23.298;2023-06-10T01:39:05;94984.72;;;19.94;100.00
7182;BME280;3632;42.724;23.298;2023-06-10T01:41:34;94923.06;;;19.55;100.00
7182;BME280;3632;42.724;23.298;2023-06-10T01:44:01;94969.91;;;19.67;100.00
7182;BME280;3632;42.724;23.298;2023-06-10T01:46:29;94974.72;;;19.70;100.00
7182;BME280;3632;42.724;23.298;2023-06-10T01:48:56;94973.50;;;19.87;100.00
7182;BME280;3632;42.724;23.298;2023-06-10T01:51:22;94975.47;;;19.85;100.00
7182;BME280;3632;42.724;23.298;2023-06-10T01:53:51;95026.94;;;19.80;100.00
7182;BME280;3632;42.724;23.298;2023-06-10T01:56:18;94974.84;;;19.83;100.00
7182;BME280;3632;42.724;23.298;2023-06-10T01:58:45;94962.88;;;19.82;100.00
7182;BME280;3632;42.724;23.298;2023-06-10T02:01:12;94975.03;;;19.45;100.00
7182;BME280;3632;42.724;23.298;2023-06-10T02:03:39;94891.25;;;19.40;100.00
7182;BME280;3632;42.724;23.298;2023-06-10T02:06:06;94561.09;;;17.36;100.00
7182;BME280;3632;42.724;23.298;2023-06-10T02:08:33;94690.13;;;18.22;100.00
7182;BME280;3632;42.724;23.298;2023-06-10T02:11:02;94985.44;;;19.88;100.00
7182;BME280;3632;42.724;23.298;2023-06-10T02:13:29;94877.47;;;19.47;100.00
7182;BME280;3632;42.724;23.298;2023-06-10T02:15:56;94922.50;;;19.59;100.00
7182;BME280;3632;42.724;23.298;2023-06-10T02:18:22;94511.13;;;16.86;100.00
7182;BME280;3632;42.724;23.298;2023-06-10T02:20:49;94447.41;;;16.59;100.00
7182;BME280;3632;42.724;23.298;2023-06-10T02:23:16;94887.59;;;19.49;100.00
7182;BME280;3632;42.724;23.298;2023-06-10T02:25:43;94923.13;;;19.11;100.00
7182;BME280;3632;42.724;23.298;2023-06-10T02:28:11;94952.47;;;19.54;100.00
7182;BME280;3632;42.724;23.298;2023-06-10T02:30:39;94665.91;;;17.35;100.00
7182;BME280;3632;42.724;23.298;2023-06-10T02:33:07;94943.00;;;19.82;100.00
7182;BME280;3632;42.724;23.298;2023-06-10T02:35:35;94970.56;;;19.90;100.00
7182;BME280;3632;42.724;23.298;2023-06-10T02:38:03;94662.25;;;17.82;100.00
7182;BME280;3632;42.724;23.298;2023-06-10T02:40:30;94825.72;;;19.05;100.00
7182;BME280;3632;42.724;23.298;2023-06-10T02:42:58;94962.28;;;19.80;100.00
7182;BME280;3632;42.724;23.298;2023-06-10T02:45:26;94944.69;;;19.90;100.00
7182;BME280;3632;42.724;23.298;2023-06-10T02:47:53;94676.81;;;17.90;100.00
7182;BME280;3632;42.724;23.298;2023-06-10T02:50:20;94639.59;;;17.63;100.00
7182;BME280;3632;42.724;23.298;2023-06-10T02:52:47;94934.81;;;20.00;100.00
7182;BME280;3632;42.724;23.298;2023-06-10T02:55:14;94936.25;;;20.02;100.00
7182;BME280;3632;42.724;23.298;2023-06-10T02:57:41;94960.13;;;20.04;100.00
7182;BME280;3632;42.724;23.298;2023-06-10T03:00:09;94476.06;;;17.15;100.00
7182;BME280;3632;42.724;23.298;2023-06-10T03:02:38;94642.72;;;18.09;100.00
7182;BME280;3632;42.724;23.298;2023-06-10T03:05:05;94594.88;;;17.70;100.00
7182;BME280;3632;42.724;23.298;2023-06-10T03:07:36;94902.19;;;19.56;100.00
7182;BME280;3632;42.724;23.298;2023-06-10T03:10:03;94958.22;;;20.13;100.00
7182;BME280;3632;42.724;23.298;2023-06-10T03:12:30;94672.78;;;17.43;100.00
7182;BME280;3632;42.724;23.298;2023-06-10T03:14:57;94956.13;;;19.81;100.00
7182;BME280;3632;42.724;23.298;2023-06-10T03:17:24;94960.31;;;19.82;100.00
7182;BME280;3632;42.724;23.298;2023-06-10T03:19:52;94955.25;;;19.95;100.00
7182;BME280;3632;42.724;23.298;2023-06-10T03:22:19;94620.91;;;17.46;100.00
7182;BME280;3632;42.724;23.298;2023-06-10T03:24:46;94966.66;;;20.00;100.00
7182;BME280;3632;42.724;23.298;2023-06-10T03:27:15;94783.22;;;18.93;100.00
7182;BME280;3632;42.724;23.298;2023-06-10T03:29:43;94935.19;;;19.54;100.00
7182;BME280;3632;42.724;23.298;2023-06-10T03:32:10;94966.22;;;19.76;100.00
7182;BME280;3632;42.724;23.298;2023-06-10T03:34:37;94738.16;;;17.57;100.00
7182;BME280;3632;42.724;23.298;2023-06-10T03:37:06;94735.94;;;18.06;100.00
7182;BME280;3632;42.724;23.298;2023-06-10T03:39:33;94564.69;;;16.68;100.00
7182;BME280;3632;42.724;23.298;2023-06-10T03:42:00;94797.47;;;18.23;100.00
7182;BME280;3632;42.724;23.298;2023-06-10T03:44:27;94954.66;;;19.21;100.00
7182;BME280;3632;42.724;23.298;2023-06-10T03:46:54;94969.50;;;19.34;100.00
7182;BME280;3632;42.724;23.298;2023-06-10T03:49:21;94542.59;;;16.36;100.00
7182;BME280;3632;42.724;23.298;2023-06-10T03:51:52;94910.03;;;19.12;100.00
7182;BME280;3632;42.724;23.298;2023-06-10T03:54:21;94939.91;;;19.36;100.00
7182;BME280;3632;42.724;23.298;2023-06-10T03:56:48;94962.31;;;19.65;100.00
7182;BME280;3632;42.724;23.298;2023-06-10T03:59:15;94604.81;;;17.44;100.00
7182;BME280;3632;42.724;23.298;2023-06-10T04:01:41;94543.09;;;17.07;100.00
7182;BME280;3632;42.724;23.298;2023-06-10T04:04:09;94968.81;;;19.76;100.00
7182;BME280;3632;42.724;23.298;2023-06-10T04:06:36;94963.00;;;19.74;100.00
7182;BME280;3632;42.724;23.298;2023-06-10T04:09:06;94969.97;;;19.73;100.00
7182;BME280;3632;42.724;23.298;2023-06-10T04:11:36;94925.47;;;19.42;100.00
7182;BME280;3632;42.724;23.298;2023-06-10T04:14:03;94893.78;;;18.83;100.00
7182;BME280;3632;42.724;23.298;2023-06-10T04:16:30;94814.91;;;18.65;100.00
7182;BME280;3632;42.724;23.298;2023-06-10T04:18:58;94910.94;;;19.41;100.00
7182;BME280;3632;42.724;23.298;2023-06-10T04:21:25;94983.66;;;19.52;100.00
7182;BME280;3632;42.724;23.298;2023-06-10T04:23:52;94617.28;;;16.88;100.00
7182;BME280;3632;42.724;23.298;2023-06-10T04:26:19;94641.41;;;16.42;100.00
7182;BME280;3632;42.724;23.298;2023-06-10T04:28:48;94562.78;;;16.25;100.00
7182;BME280;3632;42.724;23.298;2023-06-10T04:31:16;94968.47;;;18.69;100.00
7182;BME280;3632;42.724;23.298;2023-06-10T04:33:42;94892.94;;;18.38;100.00
7182;BME280;3632;42.724;23.298;2023-06-10T04:36:09;95035.44;;;18.86;100.00
7182;BME280;3632;42.724;23.298;2023-06-10T04:38:36;94977.13;;;18.91;100.00
7182;BME280;3632;42.724;23.298;2023-06-10T04:41:03;94972.75;;;18.92;100.00
7182;BME280;3632;42.724;23.298;2023-06-10T04:43:30;94981.13;;;18.94;100.00
7182;BME280;3632;42.724;23.298;2023-06-10T04:45:59;94986.81;;;19.04;100.00
7182;BME280;3632;42.724;23.298;2023-06-10T04:48:26;94973.72;;;19.35;100.00
7182;BME280;3632;42.724;23.298;2023-06-10T04:50:53;94980.63;;;19.64;100.00
7182;BME280;3632;42.724;23.298;2023-06-10T04:53:20;95001.19;;;19.72;100.00
7182;BME280;3632;42.724;23.298;2023-06-10T04:55:47;94981.44;;;19.49;100.00
7182;BME280;3632;42.724;23.298;2023-06-10T04:58:14;94974.47;;;19.35;100.00
7182;BME280;3632;42.724;23.298;2023-06-10T05:00:41;94565.50;;;16.69;100.00
7182;BME280;3632;42.724;23.298;2023-06-10T05:03:10;94964.19;;;19.21;100.00
7182;BME280;3632;42.724;23.298;2023-06-10T05:05:37;94975.66;;;19.18;100.00
7182;BME280;3632;42.724;23.298;2023-06-10T05:08:04;94981.94;;;19.09;100.00
7182;BME280;3632;42.724;23.298;2023-06-10T05:10:31;94524.03;;;16.26;100.00
7182;BME280;3632;42.724;23.298;2023-06-10T05:12:59;94972.94;;;19.05;100.00
7182;BME280;3632;42.724;23.298;2023-06-10T05:15:26;94971.91;;;19.35;100.00
7182;BME280;3632;42.724;23.298;2023-06-10T05:17:55;94900.75;;;19.18;100.00
7182;BME280;3632;42.724;23.298;2023-06-10T05:20:24;94990.38;;;19.47;100.00
7182;BME280;3632;42.724;23.298;2023-06-10T05:22:51;94965.56;;;19.52;100.00
7182;BME280;3632;42.724;23.298;2023-06-10T05:25:18;95013.38;;;19.78;100.00
7182;BME280;3632;42.724;23.298;2023-06-10T05:27:45;94464.13;;;16.40;100.00
7182;BME280;3632;42.724;23.298;2023-06-10T05:30:12;94974.94;;;20.11;100.00
7182;BME280;3632;42.724;23.298;2023-06-10T05:32:39;94911.41;;;19.66;100.00
7182;BME280;3632;42.724;23.298;2023-06-10T05:35:07;94684.75;;;18.39;100.00
7182;BME280;3632;42.724;23.298;2023-06-10T05:37:35;94699.38;;;18.67;100.00
7182;BME280;3632;42.724;23.298;2023-06-10T05:40:03;94977.50;;;20.53;100.00
7182;BME280;3632;42.724;23.298;2023-06-10T05:42:31;94990.34;;;20.68;100.00
7182;BME280;3632;42.724;23.298;2023-06-10T05:44:58;94726.00;;;19.10;100.00
7182;BME280;3632;42.724;23.298;2023-06-10T05:47:25;94990.03;;;20.84;100.00
7182;BME280;3632;42.724;23.298;2023-06-10T05:49:52;95011.63;;;20.63;100.00
7182;BME280;3632;42.724;23.298;2023-06-10T05:52:18;94706.91;;;19.05;100.00
7182;BME280;3632;42.724;23.298;2023-06-10T05:54:48;95026.94;;;20.86;100.00
7182;BME280;3632;42.724;23.298;2023-06-10T05:57:16;94804.69;;;19.72;100.00
7182;BME280;3632;42.724;23.298;2023-06-10T05:59:43;94975.13;;;20.86;100.00
7182;BME280;3632;42.724;23.298;2023-06-10T06:02:10;94738.66;;;19.48;100.00
7182;BME280;3632;42.724;23.298;2023-06-10T06:04:37;94985.19;;;21.02;100.00
7182;BME280;3632;42.724;23.298;2023-06-10T06:07:08;94548.19;;;18.16;100.00
7182;BME280;3632;42.724;23.298;2023-06-10T06:09:36;94576.53;;;17.95;100.00
7182;BME280;3632;42.724;23.298;2023-06-10T06:12:06;94716.28;;;19.34;100.00
7182;BME280;3632;42.724;23.298;2023-06-10T06:14:37;94955.31;;;20.72;99.70
7182;BME280;3632;42.724;23.298;2023-06-10T06:17:05;94995.03;;;20.85;100.00
7182;BME280;3632;42.724;23.298;2023-06-10T06:19:31;95000.13;;;21.00;99.81
7182;BME280;3632;42.724;23.298;2023-06-10T06:21:58;95003.16;;;21.10;97.38
7182;BME280;3632;42.724;23.298;2023-06-10T06:24:25;95004.25;;;21.22;97.67
7182;BME280;3632;42.724;23.298;2023-06-10T06:26:52;95001.31;;;21.32;97.51
7182;BME280;3632;42.724;23.298;2023-06-10T06:29:21;94717.41;;;19.52;96.87
7182;BME280;3632;42.724;23.298;2023-06-10T06:31:48;95007.69;;;21.29;96.06
7182;BME280;3632;42.724;23.298;2023-06-10T06:34:15;94942.00;;;20.75;95.44
7182;BME280;3632;42.724;23.298;2023-06-10T06:36:42;95005.13;;;21.36;96.88
7182;BME280;3632;42.724;23.298;2023-06-10T06:39:10;94999.13;;;21.35;97.35
7182;BME280;3632;42.724;23.298;2023-06-10T06:41:36;94995.56;;;21.43;97.12
7182;BME280;3632;42.724;23.298;2023-06-10T06:44:04;94947.22;;;21.22;94.49
7182;BME280;3632;42.724;23.298;2023-06-10T06:46:32;94600.00;;;19.06;94.26
7182;BME280;3632;42.724;23.298;2023-06-10T06:48:59;94884.53;;;20.30;95.54
7182;BME280;3632;42.724;23.298;2023-06-10T06:51:25;94982.69;;;21.63;94.87
7182;BME280;3632;42.724;23.298;2023-06-10T06:53:52;94766.53;;;20.42;93.76
7182;BME280;3632;42.724;23.298;2023-06-10T06:56:22;94938.53;;;21.36;93.98
7182;BME280;3632;42.724;23.298;2023-06-10T06:58:50;94979.31;;;21.69;94.85
7182;BME280;3632;42.724;23.298;2023-06-10T07:01:17;94624.53;;;19.44;93.98
7182;BME280;3632;42.724;23.298;2023-06-10T07:03:45;94938.34;;;21.45;89.89
7182;BME280;3632;42.724;23.298;2023-06-10T07:06:13;94962.31;;;21.53;87.94
7182;BME280;3632;42.724;23.298;2023-06-10T07:08:40;94978.03;;;21.93;89.71
7182;BME280;3632;42.724;23.298;2023-06-10T07:11:06;94759.09;;;20.74;87.03
7182;BME280;3632;42.724;23.298;2023-06-10T07:13:33;94971.47;;;22.16;83.39
7182;BME280;3632;42.724;23.298;2023-06-10T07:16:00;94966.88;;;22.18;83.55
7182;BME280;3632;42.724;23.298;2023-06-10T07:18:27;94955.88;;;22.43;84.27
7182;BME280;3632;42.724;23.298;2023-06-10T07:20:55;94957.09;;;22.47;80.73
7182;BME280;3632;42.724;23.298;2023-06-10T07:23:22;94887.94;;;21.67;79.74
7182;BME280;3632;42.724;23.298;2023-06-10T07:25:50;94903.16;;;22.49;79.38
7182;BME280;3632;42.724;23.298;2023-06-10T07:28:17;94980.41;;;23.06;78.15
7182;BME280;3632;42.724;23.298;2023-06-10T07:30:45;94954.81;;;23.16;70.97
7182;BME280;3632;42.724;23.298;2023-06-10T07:33:11;94930.69;;;22.63;70.90
7182;BME280;3632;42.724;23.298;2023-06-10T07:35:38;94576.81;;;20.68;72.86
7182;BME280;3632;42.724;23.298;2023-06-10T07:38:07;94963.81;;;23.00;80.66
7182;BME280;3632;42.724;23.298;2023-06-10T07:40:34;94957.84;;;23.00;80.70
7182;BME280;3632;42.724;23.298;2023-06-10T07:43:01;94637.38;;;20.80;81.18
7182;BME280;3632;42.724;23.298;2023-06-10T07:45:28;94936.09;;;22.55;81.38
7182;BME280;3632;42.724;23.298;2023-06-10T07:47:55;94957.44;;;22.96;81.92
7182;BME280;3632;42.724;23.298;2023-06-10T07:50:22;94946.47;;;22.68;82.04
7182;BME280;3632;42.724;23.298;2023-06-10T07:52:49;94888.00;;;22.13;80.23
7182;BME280;3632;42.724;23.298;2023-06-10T07:55:18;94641.75;;;21.06;77.89
7182;BME280;3632;42.724;23.298;2023-06-10T07:57:45;94949.69;;;22.76;73.76
7182;BME280;3632;42.724;23.298;2023-06-10T08:00:13;94953.50;;;22.87;73.35
7182;BME280;3632;42.724;23.298;2023-06-10T08:02:40;94702.59;;;21.63;72.59
7182;BME280;3632;42.724;23.298;2023-06-10T08:05:07;94958.78;;;23.18;74.58
7182;BME280;3632;42.724;23.298;2023-06-10T08:07:34;94945.28;;;23.54;74.32
7182;BME280;3632;42.724;23.298;2023-06-10T08:10:02;94947.41;;;23.64;70.94
7182;BME280;3632;42.724;23.298;2023-06-10T08:12:31;94940.69;;;23.50;73.15
7182;BME280;3632;42.724;23.298;2023-06-10T08:14:58;95005.75;;;23.43;73.08
7182;BME280;3632;42.724;23.298;2023-06-10T08:17:25;94932.91;;;23.50;71.47
7182;BME280;3632;42.724;23.298;2023-06-10T08:19:53;94922.75;;;23.22;70.93
7182;BME280;3632;42.724;23.298;2023-06-10T08:22:20;94942.81;;;23.15;72.84
7182;BME280;3632;42.724;23.298;2023-06-10T08:24:47;94933.78;;;23.24;74.64
7182;BME280;3632;42.724;23.298;2023-06-10T08:27:14;94937.13;;;23.31;72.13
7182;BME280;3632;42.724;23.298;2023-06-10T08:29:42;94862.25;;;23.08;70.95
7182;BME280;3632;42.724;23.298;2023-06-10T08:32:09;94861.81;;;23.11;73.89
7182;BME280;3632;42.724;23.298;2023-06-10T08:34:37;94858.28;;;22.93;77.56
7182;BME280;3632;42.724;23.298;2023-06-10T08:39:45;94448.09;;;20.82;68.91
7182;BME280;3632;42.724;23.298;2023-06-10T08:42:22;94507.84;;;20.93;67.81
7182;BME280;3632;42.724;23.298;2023-06-10T08:45:02;94484.75;;;20.98;71.41
7182;BME280;3632;42.724;23.298;2023-06-10T08:47:33;94503.34;;;21.53;66.58
7182;BME280;3632;42.724;23.298;2023-06-10T08:50:03;94861.34;;;23.28;64.07
7182;BME280;3632;42.724;23.298;2023-06-10T08:52:35;94717.22;;;22.86;63.59
7182;BME280;3632;42.724;23.298;2023-06-10T08:55:05;94908.41;;;24.27;63.54
7182;BME280;3632;42.724;23.298;2023-06-10T08:57:36;94854.78;;;24.12;62.07
7182;BME280;3632;42.724;23.298;2023-06-10T09:00:06;94862.69;;;24.31;59.13
7182;BME280;3632;42.724;23.298;2023-06-10T09:02:34;94797.97;;;24.03;57.56
7182;BME280;3632;42.724;23.298;2023-06-10T09:05:02;94644.38;;;23.17;55.95
7182;BME280;3632;42.724;23.298;2023-06-10T09:07:30;94733.66;;;23.85;55.26
7182;BME280;3632;42.724;23.298;2023-06-10T09:10:00;94886.78;;;25.24;60.04
7182;BME280;3632;42.724;23.298;2023-06-10T09:12:28;94640.91;;;23.30;60.24
7182;BME280;3632;42.724;23.298;2023-06-10T09:14:56;94830.28;;;25.29;58.83
7182;BME280;3632;42.724;23.298;2023-06-10T09:17:24;94877.44;;;25.76;56.82
7182;BME280;3632;42.724;23.298;2023-06-10T09:19:52;94882.63;;;26.06;56.02
7182;BME280;3632;42.724;23.298;2023-06-10T09:22:21;94903.75;;;25.92;55.08
7182;BME280;3632;42.724;23.298;2023-06-10T09:24:49;94885.91;;;25.60;55.18
7182;BME280;3632;42.724;23.298;2023-06-10T09:27:16;94877.28;;;25.59;55.50
7182;BME280;3632;42.724;23.298;2023-06-10T09:29:47;94778.22;;;25.23;55.31
7182;BME280;3632;42.724;23.298;2023-06-10T09:32:15;94871.78;;;25.79;52.58
7182;BME280;3632;42.724;23.298;2023-06-10T09:34:45;94878.84;;;25.90;52.71
7182;BME280;3632;42.724;23.298;2023-06-10T09:37:13;94818.28;;;25.58;53.29
7182;BME280;3632;42.724;23.298;2023-06-10T09:40:01;94927.50;;;26.14;55.05
7182;BME280;3632;42.724;23.298;2023-06-10T09:42:32;94445.28;;;23.64;55.82
7182;BME280;3632;42.724;23.298;2023-06-10T09:45:01;94788.72;;;25.99;55.10
7182;BME280;3632;42.724;23.298;2023-06-10T09:47:28;94897.91;;;26.67;54.44
7182;BME280;3632;42.724;23.298;2023-06-10T09:49:57;94858.56;;;26.73;53.84
7182;BME280;3632;42.724;23.298;2023-06-10T09:52:26;94856.31;;;26.89;51.15
7182;BME280;3632;42.724;23.298;2023-06-10T09:54:53;94866.69;;;27.12;51.50
7182;BME280;3632;42.724;23.298;2023-06-10T09:57:21;94791.56;;;26.32;49.47
7182;BME280;3632;42.724;23.298;2023-06-10T09:59:52;94745.34;;;25.98;50.39
7182;BME280;3632;42.724;23.298;2023-06-10T10:02:20;94798.94;;;26.12;48.81
7182;BME280;3632;42.724;23.298;2023-06-10T10:04:47;94818.91;;;26.88;47.63
7182;BME280;3632;42.724;23.298;2023-06-10T10:07:19;94626.03;;;25.52;47.08
7182;BME280;3632;42.724;23.298;2023-06-10T10:09:48;94565.13;;;25.00;46.81
7182;BME280;3632;42.724;23.298;2023-06-10T10:12:16;94828.50;;;27.11;47.50
7182;BME280;3632;42.724;23.298;2023-06-10T10:14:46;94843.19;;;27.40;46.70
7182;BME280;3632;42.724;23.298;2023-06-10T10:17:15;94830.00;;;27.63;45.37
7182;BME280;3632;42.724;23.298;2023-06-10T10:19:46;94829.50;;;27.38;45.94
7182;BME280;3632;42.724;23.298;2023-06-10T10:22:19;94811.81;;;27.28;46.66
7182;BME280;3632;42.724;23.298;2023-06-10T10:24:50;94661.66;;;26.05;46.35
7182;BME280;3632;42.724;23.298;2023-06-10T10:27:21;94668.28;;;26.47;45.72
7182;BME280;3632;42.724;23.298;2023-06-10T10:29:53;94404.28;;;24.77;45.78
7182;BME280;3632;42.724;23.298;2023-06-10T10:32:24;94615.59;;;26.39;48.27
7182;BME280;3632;42.724;23.298;2023-06-10T10:35:02;94655.88;;;26.99;47.10
7182;BME280;3632;42.724;23.298;2023-06-10T10:37:33;94802.06;;;27.52;46.25
7182;BME280;3632;42.724;23.298;2023-06-10T10:40:01;94821.28;;;28.08;45.00
7182;BME280;3632;42.724;23.298;2023-06-10T10:42:33;94573.66;;;26.78;44.04
7182;BME280;3632;42.724;23.298;2023-06-10T10:45:02;94666.78;;;27.75;42.89
7182;BME280;3632;42.724;23.298;2023-06-10T10:47:30;94849.44;;;28.68;42.30
7182;BME280;3632;42.724;23.298;2023-06-10T10:49:58;94810.53;;;28.59;42.87
7182;BME280;3632;42.724;23.298;2023-06-10T10:52:28;94802.16;;;28.63;43.49
7182;BME280;3632;42.724;23.298;2023-06-10T10:55:14;94692.63;;;27.21;45.52
7182;BME280;3632;42.724;23.298;2023-06-10T10:57:41;94798.97;;;28.22;46.58
7182;BME280;3632;42.724;23.298;2023-06-10T11:00:11;94808.41;;;28.06;47.58
7182;BME280;3632;42.724;23.298;2023-06-10T11:02:41;94804.38;;;27.65;47.71
7182;BME280;3632;42.724;23.298;2023-06-10T11:05:10;94533.00;;;26.09;46.47
7182;BME280;3632;42.724;23.298;2023-06-10T11:07:37;94623.78;;;26.19;47.12
7182;BME280;3632;42.724;23.298;2023-06-10T11:10:08;94786.84;;;27.38;47.28
7182;BME280;3632;42.724;23.298;2023-06-10T11:12:49;94569.28;;;25.82;45.81
7182;BME280;3632;42.724;23.298;2023-06-10T11:15:19;94782.69;;;27.25;46.10
7182;BME280;3632;42.724;23.298;2023-06-10T11:18:22;94778.59;;;27.57;46.92
7182;BME280;3632;42.724;23.298;2023-06-10T11:21:00;94604.44;;;27.21;47.79
7182;BME280;3632;42.724;23.298;2023-06-10T11:23:38;94478.75;;;27.33;45.85
7182;BME280;3632;42.724;23.298;2023-06-10T11:26:35;94407.75;;;27.03;45.85
7182;BME280;3632;42.724;23.298;2023-06-10T11:29:14;94760.13;;;29.01;44.49
7182;BME280;3632;42.724;23.298;2023-06-10T11:31:44;94319.78;;;25.86;45.14
7182;BME280;3632;42.724;23.298;2023-06-10T11:34:13;94750.13;;;28.54;46.42
7182;BME280;3632;42.724;23.298;2023-06-10T11:36:41;94581.28;;;27.30;47.09
7182;BME280;3632;42.724;23.298;2023-06-10T11:39:11;94723.31;;;28.09;46.90
7182;BME280;3632;42.724;23.298;2023-06-10T11:41:39;94327.66;;;25.01;44.54
7182;BME280;3632;42.724;23.298;2023-06-10T11:44:08;94738.50;;;27.74;45.96
7182;BME280;3632;42.724;23.298;2023-06-10T11:46:37;94350.38;;;25.18;46.12
7182;BME280;3632;42.724;23.298;2023-06-10T11:49:05;94517.72;;;26.46;43.83
7182;BME280;3632;42.724;23.298;2023-06-10T11:51:34;94696.72;;;27.62;45.05
7182;BME280;3632;42.724;23.298;2023-06-10T11:54:02;94711.66;;;27.33;45.13
7182;BME280;3632;42.724;23.298;2023-06-10T11:56:30;94704.38;;;27.35;43.64
7182;BME280;3632;42.724;23.298;2023-06-10T11:58:58;94753.91;;;27.70;44.58
7182;BME280;3632;42.724;23.298;2023-06-10T12:01:29;94714.63;;;27.37;42.42
7182;BME280;3632;42.724;23.298;2023-06-10T12:03:59;94743.75;;;27.74;41.47
7182;BME280;3632;42.724;23.298;2023-06-10T12:06:26;94737.50;;;27.58;41.04
7182;BME280;3632;42.724;23.298;2023-06-10T12:08:54;94745.13;;;27.31;41.69
7182;BME280;3632;42.724;23.298;2023-06-10T12:11:21;94396.94;;;25.26;42.74
7182;BME280;3632;42.724;23.298;2023-06-10T12:13:49;94694.38;;;27.32;43.41
7182;BME280;3632;42.724;23.298;2023-06-10T12:16:16;94688.03;;;27.45;45.04
7182;BME280;3632;42.724;23.298;2023-06-10T12:18:44;94652.50;;;27.32;45.50
7182;BME280;3632;42.724;23.298;2023-06-10T12:21:18;94598.03;;;26.96;45.63
7182;BME280;3632;42.724;23.298;2023-06-10T12:24:05;94571.75;;;26.01;41.98
7182;BME280;3632;42.724;23.298;2023-06-10T12:26:37;94764.28;;;27.48;47.26
7182;BME280;3632;42.724;23.298;2023-06-10T12:29:22;94419.56;;;25.09;42.38
7182;BME280;3632;42.724;23.298;2023-06-10T12:32:00;94731.16;;;27.25;44.11
7182;BME280;3632;42.724;23.298;2023-06-10T12:34:35;94733.84;;;27.14;44.61
7182;BME280;3632;42.724;23.298;2023-06-10T12:37:06;94471.66;;;25.43;46.96
7182;BME280;3632;42.724;23.298;2023-06-10T12:39:39;94715.56;;;27.31;47.70
7182;BME280;3632;42.724;23.298;2023-06-10T12:42:08;94716.16;;;27.21;43.62
7182;BME280;3632;42.724;23.298;2023-06-10T12:44:39;94715.47;;;27.25;44.91
7182;BME280;3632;42.724;23.298;2023-06-10T12:47:10;94544.78;;;25.72;46.88
7182;BME280;3632;42.724;23.298;2023-06-10T12:49:38;94714.66;;;27.25;47.29
7182;BME280;3632;42.724;23.298;2023-06-10T12:52:08;94494.69;;;25.58;41.09
7182;BME280;3632;42.724;23.298;2023-06-10T12:54:35;94728.59;;;26.97;41.10
7182;BME280;3632;42.724;23.298;2023-06-10T12:57:06;94719.59;;;26.65;43.80
7182;BME280;3632;42.724;23.298;2023-06-10T12:59:33;94720.56;;;26.75;43.53
7182;BME280;3632;42.724;23.298;2023-06-10T13:02:00;94727.84;;;26.73;45.19
7182;BME280;3632;42.724;23.298;2023-06-10T13:04:27;94730.84;;;26.54;45.15
7182;BME280;3632;42.724;23.298;2023-06-10T13:06:54;94265.78;;;23.34;47.07
7182;BME280;3632;42.724;23.298;2023-06-10T13:09:22;94488.78;;;23.75;48.94
7182;BME280;3632;42.724;23.298;2023-06-10T13:11:50;94756.72;;;24.97;55.33
7182;BME280;3632;42.724;23.298;2023-06-10T13:14:18;94754.69;;;24.81;59.67
7182;BME280;3632;42.724;23.298;2023-06-10T13:16:45;94764.69;;;24.66;60.50